Time;durP1;ratioP1;P1;durP2;ratioP2;P2;SDS_P1;SDS_P2;PMS_P1;PMS_P2;Temp;Humidity;BMP_temperature;BMP_pressure;BME280_temperature;BME280_humidity;BME280_pressure;Samples;Min_cycle;Max_cycle;Signal;HPM_P1;HPM_P2
2021/04/02 00:01:25;;;;;;;;;;;;;;;11.87;61.79;95891.41;1703781;82;20241;-61
2021/04/02 00:03:52;;;;;;;;;;;;;;;11.84;61.90;95883.41;1705074;82;20673;-61
2021/04/02 00:06:19;;;;;;;;;;;;;;;11.83;61.90;95886.14;1700544;82;20504;-60
2021/04/02 00:08:47;;;;;;;;;;;;;;;11.83;61.89;95891.34;1703178;82;20225;-60
2021/04/02 00:11:14;;;;;;;;;;;;;;;11.86;61.90;95884.55;1705067;82;20217;-61
2021/04/02 00:13:44;;;;;;;;;;;;;;;11.88;61.93;95886.08;1700312;82;20253;-60
2021/04/02 00:16:15;;;;;;;;;;;;;;;11.91;61.88;95884.55;1710367;82;22272;-61
2021/04/02 00:18:42;;;;;;;;;;;;;;;11.87;61.74;95879.70;1703651;82;20221;-60
2021/04/02 00:21:12;;;;;;;;;;;;;;;11.82;61.95;95880.11;1703753;82;20379;-61
2021/04/02 00:23:39;;;;;;;;;;;;;;;11.76;62.14;95871.56;1696307;82;20249;-60
2021/04/02 00:26:07;;;;;;;;;;;;;;;11.70;62.36;95875.98;1697074;82;21599;-59
2021/04/02 00:28:35;;;;;;;;;;;;;;;11.65;62.50;95876.38;1700039;82;21207;-60
2021/04/02 00:31:02;;;;;;;;;;;;;;;11.64;62.50;95876.50;1702547;82;20228;-61
2021/04/02 00:33:31;;;;;;;;;;;;;;;11.59;62.65;95871.24;1700215;82;20224;-60
2021/04/02 00:35:58;;;;;;;;;;;;;;;11.57;62.71;95873.12;1673754;83;20309;-60
2021/04/02 00:38:26;;;;;;;;;;;;;;;11.54;62.90;95869.98;1694135;82;20236;-60
2021/04/02 00:41:02;;;;;;;;;;;;;;;11.49;63.03;95876.86;1681922;84;21207;-60
2021/04/02 00:43:38;;;;;;;;;;;;;;;11.41;63.22;95874.09;1678806;84;20232;-60
2021/04/02 00:46:07;;;;;;;;;;;;;;;11.37;63.46;95870.95;1690095;83;20553;-60
2021/04/02 00:48:36;;;;;;;;;;;;;;;11.42;63.51;95871.86;1689844;83;20247;-60
2021/04/02 00:51:19;;;;;;;;;;;;;;;11.40;63.43;95875.88;1682450;84;20613;-60
2021/04/02 00:53:47;;;;;;;;;;;;;;;11.37;63.32;95880.52;1711619;82;21264;-60
2021/04/02 00:56:15;;;;;;;;;;;;;;;11.35;63.41;95878.53;1701949;82;20227;-60
2021/04/02 00:58:43;;;;;;;;;;;;;;;11.38;63.29;95880.84;1704534;82;20221;-61
2021/04/02 01:01:12;;;;;;;;;;;;;;;11.42;63.10;95882.25;1707612;82;20225;-60
2021/04/02 01:03:40;;;;;;;;;;;;;;;11.46;62.90;95873.22;1712567;82;20276;-61
2021/04/02 01:06:15;;;;;;;;;;;;;;;11.44;62.79;95872.54;1706613;82;22150;-61
2021/04/02 01:08:44;;;;;;;;;;;;;;;11.43;62.85;95870.91;1676633;84;20223;-61
2021/04/02 01:11:15;;;;;;;;;;;;;;;11.45;62.85;95869.45;1674607;84;20223;-60
2021/04/02 01:13:49;;;;;;;;;;;;;;;11.50;62.79;95864.72;1682323;83;20246;-61
2021/04/02 01:16:29;;;;;;;;;;;;;;;11.48;62.73;95868.74;1687263;83;20217;-62
2021/04/02 01:19:30;;;;;;;;;;;;;;;11.41;62.85;95878.84;1684785;83;20593;-63
2021/04/02 01:22:06;;;;;;;;;;;;;;;11.37;63.03;95870.95;1677273;84;20228;-61
2021/04/02 01:24:44;;;;;;;;;;;;;;;11.40;62.40;95873.77;1680026;84;20481;-62
2021/04/02 01:27:24;;;;;;;;;;;;;;;11.48;60.44;95861.41;1678986;84;20230;-63
2021/04/02 01:30:04;;;;;;;;;;;;;;;11.60;59.95;95861.17;1662992;83;20278;-63
2021/04/02 01:32:35;;;;;;;;;;;;;;;11.74;58.97;95866.50;1653861;83;21398;-62
2021/04/02 01:35:12;;;;;;;;;;;;;;;11.85;58.36;95861.64;1679699;83;20501;-62
2021/04/02 01:37:49;;;;;;;;;;;;;;;11.95;57.53;95866.41;1675898;84;20247;-62
2021/04/02 01:40:19;;;;;;;;;;;;;;;12.07;57.09;95867.13;1683089;84;20281;-62
2021/04/02 01:42:46;;;;;;;;;;;;;;;12.15;56.68;95864.68;1624302;85;20274;-62
2021/04/02 01:45:16;;;;;;;;;;;;;;;12.22;56.41;95868.02;1665773;84;21220;-60
2021/04/02 01:47:45;;;;;;;;;;;;;;;12.28;56.08;95860.48;1690018;83;20234;-63
2021/04/02 01:50:15;;;;;;;;;;;;;;;12.32;55.86;95860.56;1684617;84;20530;-64
2021/04/02 01:52:42;;;;;;;;;;;;;;;12.38;55.58;95863.58;1674331;83;20221;-64
2021/04/02 01:55:11;;;;;;;;;;;;;;;12.39;55.62;95862.63;1665981;85;20257;-64
2021/04/02 01:57:41;;;;;;;;;;;;;;;12.39;55.55;95862.14;1680660;84;21266;-64
2021/04/02 02:00:12;;;;;;;;;;;;;;;12.42;55.50;95866.27;1686606;83;20313;-63
2021/04/02 02:02:41;;;;;;;;;;;;;;;12.44;55.27;95863.03;1681385;83;20230;-61
2021/04/02 02:05:11;;;;;;;;;;;;;;;12.44;55.19;95867.75;1628325;85;20230;-63
2021/04/02 02:07:42;;;;;;;;;;;;;;;12.46;55.20;95867.61;1630196;85;20250;-61
2021/04/02 02:10:11;;;;;;;;;;;;;;;12.47;55.12;95864.88;1655872;85;22302;-61
2021/04/02 02:12:39;;;;;;;;;;;;;;;12.50;55.07;95867.70;1649771;85;20240;-60
2021/04/02 02:15:13;;;;;;;;;;;;;;;12.52;54.96;95859.27;1645470;85;20257;-60
2021/04/02 02:17:44;;;;;;;;;;;;;;;12.55;54.92;95853.79;1656941;85;20681;-60
2021/04/02 02:20:14;;;;;;;;;;;;;;;12.57;54.87;95850.56;1647136;85;20316;-60
2021/04/02 02:22:42;;;;;;;;;;;;;;;12.61;54.79;95851.09;1650096;85;22289;-60
2021/04/02 02:25:13;;;;;;;;;;;;;;;12.61;54.67;95847.20;1651313;85;20251;-60
2021/04/02 02:27:45;;;;;;;;;;;;;;;12.63;54.67;95851.31;1652338;85;20243;-61
2021/04/02 02:30:16;;;;;;;;;;;;;;;12.63;54.63;95846.11;1655122;85;20732;-60
2021/04/02 02:32:44;;;;;;;;;;;;;;;12.65;54.51;95853.78;1650726;85;20217;-60
2021/04/02 02:35:13;;;;;;;;;;;;;;;12.66;54.49;95859.30;1654337;85;21222;-60
2021/04/02 02:37:42;;;;;;;;;;;;;;;12.66;54.49;95852.34;1655530;85;20317;-62
2021/04/02 02:40:13;;;;;;;;;;;;;;;12.69;54.42;95855.13;1667419;83;20220;-62
2021/04/02 02:42:41;;;;;;;;;;;;;;;12.70;54.35;95851.58;1684372;85;20678;-61
2021/04/02 02:45:11;;;;;;;;;;;;;;;12.70;54.40;95843.77;1682395;83;20227;-62
2021/04/02 02:47:41;;;;;;;;;;;;;;;12.72;54.48;95843.14;1650620;85;21212;-62
2021/04/02 02:50:12;;;;;;;;;;;;;;;12.75;54.41;95840.75;1677723;84;20223;-60
2021/04/02 02:52:40;;;;;;;;;;;;;;;12.77;54.40;95842.73;1679800;83;20231;-61
2021/04/02 02:55:09;;;;;;;;;;;;;;;12.73;54.49;95838.29;1685790;83;21209;-61
2021/04/02 02:57:38;;;;;;;;;;;;;;;12.74;54.55;95842.52;1693121;83;20545;-60
2021/04/02 03:00:09;;;;;;;;;;;;;;;12.75;54.58;95840.27;1683787;83;21385;-61
2021/04/02 03:02:36;;;;;;;;;;;;;;;12.75;54.45;95838.15;1701517;82;20289;-60
2021/04/02 03:05:07;;;;;;;;;;;;;;;12.77;54.43;95834.92;1680752;84;20277;-61
2021/04/02 03:07:35;;;;;;;;;;;;;;;12.77;54.41;95835.73;1671599;84;20234;-60
2021/04/02 03:10:06;;;;;;;;;;;;;;;12.77;54.37;95840.94;1680876;85;20236;-60
2021/04/02 03:12:33;;;;;;;;;;;;;;;12.77;54.56;95835.73;1677660;84;21384;-60
2021/04/02 03:15:05;;;;;;;;;;;;;;;12.78;54.62;95834.78;1697630;82;20542;-60
2021/04/02 03:17:33;;;;;;;;;;;;;;;12.82;54.62;95834.02;1680723;83;20282;-60
2021/04/02 03:20:03;;;;;;;;;;;;;;;12.83;54.51;95838.27;1645272;85;20240;-60
2021/04/02 03:22:32;;;;;;;;;;;;;;;12.84;54.51;95829.48;1711011;82;20220;-60
2021/04/02 03:25:05;;;;;;;;;;;;;;;12.86;54.75;95830.16;1714350;82;21220;-60
2021/04/02 03:27:34;;;;;;;;;;;;;;;12.82;55.09;95834.83;1711056;82;20236;-60
2021/04/02 03:30:05;;;;;;;;;;;;;;;12.76;55.46;95834.56;1683713;82;20241;-61
2021/04/02 03:32:32;;;;;;;;;;;;;;;12.73;55.72;95838.29;1651203;83;20554;-61
2021/04/02 03:35:03;;;;;;;;;;;;;;;12.73;55.98;95830.94;1698218;82;20225;-59
2021/04/02 03:37:33;;;;;;;;;;;;;;;12.69;56.33;95834.30;1676647;83;21212;-61
2021/04/02 03:40:04;;;;;;;;;;;;;;;12.66;56.65;95826.31;1643017;85;20256;-61
2021/04/02 03:42:32;;;;;;;;;;;;;;;12.64;56.94;95829.52;1710724;82;20492;-62
2021/04/02 03:45:00;;;;;;;;;;;;;;;12.62;57.23;95832.74;1715352;82;20224;-62
2021/04/02 03:47:28;;;;;;;;;;;;;;;12.58;57.62;95830.55;1682044;84;20265;-61
2021/04/02 03:50:01;;;;;;;;;;;;;;;12.52;57.83;95826.74;1701414;82;21221;-60
2021/04/02 03:52:32;;;;;;;;;;;;;;;12.51;57.96;95839.39;1711473;82;20216;-60
2021/04/02 03:54:59;;;;;;;;;;;;;;;12.48;58.18;95827.50;1709640;82;20224;-60
2021/04/02 03:57:29;;;;;;;;;;;;;;;12.46;58.41;95831.19;1701514;82;20229;-60
2021/04/02 03:59:58;;;;;;;;;;;;;;;12.42;58.88;95838.45;1710324;82;20273;-60
2021/04/02 04:02:27;;;;;;;;;;;;;;;12.36;59.50;95836.40;1674338;84;21226;-62
2021/04/02 04:04:57;;;;;;;;;;;;;;;12.28;60.18;95838.86;1672972;84;20217;-60
2021/04/02 04:07:26;;;;;;;;;;;;;;;12.20;60.74;95834.83;1707794;82;20225;-60
2021/04/02 04:09:54;;;;;;;;;;;;;;;12.14;61.31;95834.91;1706285;82;20230;-60
2021/04/02 04:12:22;;;;;;;;;;;;;;;12.09;61.80;95832.70;1707190;82;20500;-60
2021/04/02 04:15:00;;;;;;;;;;;;;;;12.10;62.15;95836.94;1701010;82;21422;-60
2021/04/02 04:17:29;;;;;;;;;;;;;;;12.12;62.61;95840.23;1662914;84;20608;-60
2021/04/02 04:19:58;;;;;;;;;;;;;;;12.13;63.17;95840.56;1689000;84;20217;-62
2021/04/02 04:22:27;;;;;;;;;;;;;;;12.14;63.63;95840.92;1707505;82;20264;-60
2021/04/02 04:24:55;;;;;;;;;;;;;;;12.14;64.04;95840.92;1702323;82;20284;-61
2021/04/02 04:27:22;;;;;;;;;;;;;;;12.12;64.48;95844.14;1711255;82;22179;-59
2021/04/02 04:29:51;;;;;;;;;;;;;;;12.03;64.91;95851.93;1714753;82;20278;-60
2021/04/02 04:32:20;;;;;;;;;;;;;;;12.00;65.21;95850.90;1707006;82;20252;-60
2021/04/02 04:34:48;;;;;;;;;;;;;;;11.94;65.53;95849.19;1703030;82;20265;-60
2021/04/02 04:37:17;;;;;;;;;;;;;;;11.83;65.73;95846.67;1710068;82;20244;-60
2021/04/02 04:39:46;;;;;;;;;;;;;;;11.70;66.29;95850.00;1704093;82;21382;-60
2021/04/02 04:42:18;;;;;;;;;;;;;;;11.58;67.04;95845.39;1706052;82;20276;-61
2021/04/02 04:44:48;;;;;;;;;;;;;;;11.53;67.40;95852.73;1720182;82;20218;-60
2021/04/02 04:47:15;;;;;;;;;;;;;;;11.46;67.55;95851.14;1710063;82;20228;-61
2021/04/02 04:49:44;;;;;;;;;;;;;;;11.36;67.81;95853.70;1710741;82;20220;-60
2021/04/02 04:52:15;;;;;;;;;;;;;;;11.29;68.10;95856.49;1722389;82;21202;-61
2021/04/02 04:54:46;;;;;;;;;;;;;;;11.24;68.37;95855.58;1718261;82;20246;-62
2021/04/02 04:57:14;;;;;;;;;;;;;;;11.24;68.78;95852.98;1711153;82;20515;-65
2021/04/02 04:59:41;;;;;;;;;;;;;;;11.22;69.01;95854.89;1726591;82;20253;-64
2021/04/02 05:02:08;;;;;;;;;;;;;;;11.29;69.51;95859.57;1709643;82;20221;-62
2021/04/02 05:04:36;;;;;;;;;;;;;;;11.35;69.37;95862.47;1678951;82;21130;-63
2021/04/02 05:07:05;;;;;;;;;;;;;;;11.37;69.43;95859.73;1725188;82;20229;-63
2021/04/02 05:09:32;;;;;;;;;;;;;;;11.37;69.31;95858.44;1665077;82;20493;-63
2021/04/02 05:11:59;;;;;;;;;;;;;;;11.31;69.57;95860.26;1703045;82;20257;-63
2021/04/02 05:14:27;;;;;;;;;;;;;;;11.26;69.74;95861.13;1696463;82;20265;-63
2021/04/02 05:16:55;;;;;;;;;;;;;;;11.17;70.04;95862.25;1682173;83;21233;-63
2021/04/02 05:19:22;;;;;;;;;;;;;;;11.13;70.26;95870.42;1676417;83;20247;-63
2021/04/02 05:21:50;;;;;;;;;;;;;;;11.11;70.45;95870.55;1699320;82;20577;-63
2021/04/02 05:24:18;;;;;;;;;;;;;;;11.10;70.66;95868.92;1701593;82;20249;-62
2021/04/02 05:26:45;;;;;;;;;;;;;;;11.08;70.72;95872.59;1693558;82;20217;-62
2021/04/02 05:29:13;;;;;;;;;;;;;;;11.04;71.03;95870.73;1704155;82;21211;-59
2021/04/02 05:31:40;;;;;;;;;;;;;;;11.03;71.02;95878.16;1683040;83;20232;-64
2021/04/02 05:34:09;;;;;;;;;;;;;;;11.06;71.08;95872.72;1700857;82;20217;-65
2021/04/02 05:36:37;;;;;;;;;;;;;;;11.15;71.17;95873.25;1708449;82;20294;-59
2021/04/02 05:39:05;;;;;;;;;;;;;;;11.28;71.03;95874.80;1697640;82;20232;-63
2021/04/02 05:41:39;;;;;;;;;;;;;;;11.35;70.87;95877.23;1692263;82;21352;-64
2021/04/02 05:44:10;;;;;;;;;;;;;;;11.35;70.79;95874.64;1672679;84;20521;-64
2021/04/02 05:46:38;;;;;;;;;;;;;;;11.33;70.67;95881.27;1689248;83;20250;-62
2021/04/02 05:49:06;;;;;;;;;;;;;;;11.31;70.77;95874.54;1705049;82;20821;-62
2021/04/02 05:51:33;;;;;;;;;;;;;;;11.30;70.90;95878.08;1714697;82;20253;-63
2021/04/02 05:54:00;;;;;;;;;;;;;;;11.28;71.12;95877.39;1704267;82;21196;-62
2021/04/02 05:56:27;;;;;;;;;;;;;;;11.30;71.19;95876.78;1702958;82;20514;-62
2021/04/02 05:58:56;;;;;;;;;;;;;;;11.35;71.21;95882.44;1706756;82;20242;-63
2021/04/02 06:01:23;;;;;;;;;;;;;;;11.37;71.15;95883.12;1707295;82;20227;-64
2021/04/02 06:03:53;;;;;;;;;;;;;;;11.38;71.11;95884.29;1705715;82;20224;-64
2021/04/02 06:06:20;;;;;;;;;;;;;;;11.37;70.94;95886.53;1708276;82;22101;-63
2021/04/02 06:08:48;;;;;;;;;;;;;;;11.37;70.96;95882.63;1707035;82;20221;-64
2021/04/02 06:11:16;;;;;;;;;;;;;;;11.36;70.94;95885.36;1698213;82;20306;-63
2021/04/02 06:13:45;;;;;;;;;;;;;;;11.36;70.96;95885.36;1702721;82;20227;-64
2021/04/02 06:16:13;;;;;;;;;;;;;;;11.37;71.01;95888.31;1699303;82;20227;-64
2021/04/02 06:18:41;;;;;;;;;;;;;;;11.39;70.99;95889.81;1699661;82;21173;-62
2021/04/02 06:21:08;;;;;;;;;;;;;;;11.38;71.01;95890.78;1699414;82;20227;-63
2021/04/02 06:23:37;;;;;;;;;;;;;;;11.40;70.92;95891.95;1708379;82;20255;-63
2021/04/02 06:26:10;;;;;;;;;;;;;;;11.39;70.64;95891.59;1703563;82;20224;-64
2021/04/02 06:28:41;;;;;;;;;;;;;;;11.38;70.54;95895.98;1705418;82;20561;-62
2021/04/02 06:31:15;;;;;;;;;;;;;;;11.35;70.49;95893.63;1694387;82;22119;-64
2021/04/02 06:33:46;;;;;;;;;;;;;;;11.34;70.38;95894.58;1700115;82;20243;-64
2021/04/02 06:36:17;;;;;;;;;;;;;;;11.35;70.57;95896.72;1710571;82;20226;-62
2021/04/02 06:38:45;;;;;;;;;;;;;;;11.33;70.47;95897.30;1703239;82;20227;-62
2021/04/02 06:41:13;;;;;;;;;;;;;;;11.30;70.41;95897.55;1707826;82;20532;-62
2021/04/02 06:43:47;;;;;;;;;;;;;;;11.28;70.48;95902.06;1706795;82;21373;-63
2021/04/02 06:46:21;;;;;;;;;;;;;;;11.26;70.54;95903.49;1670547;84;20488;-61
2021/04/02 06:48:53;;;;;;;;;;;;;;;11.22;70.39;95906.83;1645776;85;20236;-63
2021/04/02 06:51:23;;;;;;;;;;;;;;;11.15;70.25;95901.81;1669799;84;20259;-62
2021/04/02 06:53:53;;;;;;;;;;;;;;;11.12;70.23;95916.34;1675093;84;20281;-62
2021/04/02 06:56:20;;;;;;;;;;;;;;;11.10;70.37;95918.25;1674411;84;21974;-62
2021/04/02 06:58:50;;;;;;;;;;;;;;;11.09;70.51;95924.39;1666437;84;20231;-63
2021/04/02 07:01:17;;;;;;;;;;;;;;;11.06;70.62;95923.34;1669978;84;20264;-62
2021/04/02 07:03:46;;;;;;;;;;;;;;;10.99;70.56;95930.00;1674678;84;20243;-62
2021/04/02 07:06:14;;;;;;;;;;;;;;;10.95;70.71;95927.30;1669910;84;20229;-63
2021/04/02 07:08:45;;;;;;;;;;;;;;;10.93;70.75;95929.20;1668954;84;20220;-63
2021/04/02 07:11:14;;;;;;;;;;;;;;;10.94;70.86;95940.76;1669690;84;20246;-61
2021/04/02 07:13:52;;;;;;;;;;;;;;;10.94;70.89;95942.05;1674776;84;20223;-63
2021/04/02 07:16:23;;;;;;;;;;;;;;;10.94;70.87;95947.25;1665800;84;20250;-62
2021/04/02 07:18:50;;;;;;;;;;;;;;;10.97;70.92;95952.19;1665129;84;20249;-64
2021/04/02 07:21:18;;;;;;;;;;;;;;;10.94;70.94;95949.84;1659195;84;21225;-63
2021/04/02 07:23:46;;;;;;;;;;;;;;;10.93;70.94;95948.19;1667415;84;20221;-62
2021/04/02 07:26:13;;;;;;;;;;;;;;;10.92;71.08;95956.94;1676325;84;20293;-63
2021/04/02 07:28:45;;;;;;;;;;;;;;;10.94;71.12;95953.73;1675236;84;20223;-63
2021/04/02 07:31:12;;;;;;;;;;;;;;;10.97;70.99;95956.53;1667672;84;20233;-63
2021/04/02 07:33:42;;;;;;;;;;;;;;;10.98;70.90;95960.79;1674882;84;21231;-64
2021/04/02 07:36:10;;;;;;;;;;;;;;;10.98;70.88;95956.41;1666539;84;20226;-63
2021/04/02 07:38:39;;;;;;;;;;;;;;;11.00;70.81;95957.13;1678643;84;20498;-65
2021/04/02 07:41:12;;;;;;;;;;;;;;;11.02;70.79;95964.31;1668819;84;20224;-64
2021/04/02 07:43:55;;;;;;;;;;;;;;;11.06;70.66;95970.06;1683709;84;20232;-63
2021/04/02 07:46:24;;;;;;;;;;;;;;;11.04;70.42;95970.19;1677788;83;21213;-63
2021/04/02 07:49:01;;;;;;;;;;;;;;;11.05;70.20;95969.26;1684283;84;20222;-62
2021/04/02 07:51:48;;;;;;;;;;;;;;;11.07;70.14;95969.58;1685722;83;20250;-64
2021/04/02 07:54:34;;;;;;;;;;;;;;;11.05;70.10;95973.15;1682799;84;20553;-65
2021/04/02 07:57:08;;;;;;;;;;;;;;;11.12;69.98;95976.52;1688545;84;20236;-65
2021/04/02 07:59:37;;;;;;;;;;;;;;;11.16;70.04;95974.84;1707634;82;21224;-62
2021/04/02 08:02:10;;;;;;;;;;;;;;;11.18;70.04;95974.72;1702519;82;20237;-62
2021/04/02 08:04:40;;;;;;;;;;;;;;;11.20;69.65;95971.52;1680627;84;20252;-62
2021/04/02 08:07:17;;;;;;;;;;;;;;;11.21;69.36;95977.88;1676282;84;21922;-63
2021/04/02 08:09:49;;;;;;;;;;;;;;;11.24;69.32;95985.91;1687107;84;20299;-61
2021/04/02 08:12:22;;;;;;;;;;;;;;;11.27;69.24;95986.95;1680792;84;21217;-63
2021/04/02 08:14:50;;;;;;;;;;;;;;;11.18;69.17;95983.35;1687535;83;20222;-63
2021/04/02 08:17:21;;;;;;;;;;;;;;;11.18;69.35;95989.84;1713034;82;20228;-62
2021/04/02 08:19:48;;;;;;;;;;;;;;;11.18;69.37;95982.51;1699337;82;20228;-63
2021/04/02 08:22:17;;;;;;;;;;;;;;;11.22;69.40;95993.81;1698268;82;20331;-63
2021/04/02 08:24:45;;;;;;;;;;;;;;;11.24;68.80;95993.20;1710489;82;21203;-63
2021/04/02 08:27:14;;;;;;;;;;;;;;;11.24;68.47;95989.80;1702268;82;20230;-62
2021/04/02 08:29:44;;;;;;;;;;;;;;;11.22;68.64;95988.62;1710495;82;20243;-63
2021/04/02 08:32:15;;;;;;;;;;;;;;;11.24;68.74;95989.80;1705282;82;20244;-62
2021/04/02 08:34:43;;;;;;;;;;;;;;;11.26;68.58;95989.67;1708015;82;20504;-64
2021/04/02 08:37:12;;;;;;;;;;;;;;;11.26;68.48;95990.97;1701569;82;22083;-62
2021/04/02 08:39:39;;;;;;;;;;;;;;;11.25;68.40;95991.45;1709956;82;20236;-63
2021/04/02 08:42:08;;;;;;;;;;;;;;;11.22;68.37;95995.12;1702924;82;20299;-63
2021/04/02 08:44:38;;;;;;;;;;;;;;;11.17;68.61;95986.89;1703632;82;20276;-61
2021/04/02 08:47:12;;;;;;;;;;;;;;;11.18;68.75;95992.89;1676057;84;20486;-65
2021/04/02 08:49:42;;;;;;;;;;;;;;;11.17;68.57;95992.08;1663120;84;21211;-63
2021/04/02 08:52:15;;;;;;;;;;;;;;;11.11;68.45;96005.56;1664866;84;20229;-62
2021/04/02 08:54:45;;;;;;;;;;;;;;;11.04;68.43;96006.54;1674068;84;20480;-62
2021/04/02 08:57:13;;;;;;;;;;;;;;;10.89;68.43;96005.20;1664675;84;20223;-62
2021/04/02 08:59:43;;;;;;;;;;;;;;;10.75;68.44;96007.59;1670446;84;20240;-63
2021/04/02 09:02:12;;;;;;;;;;;;;;;10.56;68.80;95998.34;1648207;85;21412;-61
2021/04/02 09:04:40;;;;;;;;;;;;;;;10.41;69.05;96001.23;1647182;85;20237;-62
2021/04/02 09:07:07;;;;;;;;;;;;;;;10.32;69.29;96008.43;1668246;84;20246;-62
2021/04/02 09:09:37;;;;;;;;;;;;;;;10.23;69.77;96006.06;1669789;84;20229;-64
2021/04/02 09:12:07;;;;;;;;;;;;;;;10.20;69.76;96008.08;1661760;84;20224;-62
2021/04/02 09:14:34;;;;;;;;;;;;;;;10.16;69.71;96010.06;1657734;84;20756;-62
2021/04/02 09:17:02;;;;;;;;;;;;;;;10.13;69.73;96013.73;1662959;84;20232;-63
2021/04/02 09:19:29;;;;;;;;;;;;;;;10.04;69.88;96013.63;1658648;85;20517;-62
2021/04/02 09:21:57;;;;;;;;;;;;;;;9.93;70.21;96020.92;1640866;86;20308;-62
2021/04/02 09:24:24;;;;;;;;;;;;;;;9.83;70.55;96023.88;1661666;84;20274;-62
2021/04/02 09:26:51;;;;;;;;;;;;;;;9.73;70.79;96020.68;1660192;84;21375;-62
2021/04/02 09:29:20;;;;;;;;;;;;;;;9.62;70.91;96031.50;1657583;84;20689;-62
2021/04/02 09:31:48;;;;;;;;;;;;;;;9.50;71.07;96028.90;1705646;82;20237;-62
2021/04/02 09:34:19;;;;;;;;;;;;;;;9.39;71.34;96040.08;1657904;84;21104;-62
2021/04/02 09:36:47;;;;;;;;;;;;;;;9.35;71.65;96049.48;1701140;82;20294;-62
2021/04/02 09:39:26;;;;;;;;;;;;;;;9.33;71.82;96040.52;1698210;82;21197;-63
2021/04/02 09:41:55;;;;;;;;;;;;;;;9.29;71.79;96046.88;1699828;82;20217;-63
2021/04/02 09:44:25;;;;;;;;;;;;;;;9.22;71.93;96049.55;1703014;82;20300;-62
2021/04/02 09:46:55;;;;;;;;;;;;;;;9.18;72.15;96049.44;1665396;84;20270;-65
2021/04/02 09:49:23;;;;;;;;;;;;;;;9.20;72.16;96051.44;1645688;85;20219;-63
2021/04/02 09:51:55;;;;;;;;;;;;;;;9.24;72.34;96054.62;1675315;84;21291;-64
2021/04/02 09:54:24;;;;;;;;;;;;;;;9.28;72.08;96053.47;1669504;84;20240;-64
2021/04/02 09:56:54;;;;;;;;;;;;;;;9.31;71.65;96057.95;1673570;84;20217;-62
2021/04/02 09:59:21;;;;;;;;;;;;;;;9.29;71.47;96052.06;1669446;84;20224;-62
2021/04/02 10:01:50;;;;;;;;;;;;;;;9.31;71.29;96057.09;1668783;84;20290;-62
2021/04/02 10:04:17;;;;;;;;;;;;;;;9.31;70.67;96060.53;1662009;84;21219;-62
2021/04/02 10:06:46;;;;;;;;;;;;;;;9.33;69.87;96057.35;1672418;84;21232;-62
2021/04/02 10:09:13;;;;;;;;;;;;;;;9.33;69.02;96055.25;1659843;84;20242;-63
2021/04/02 10:11:42;;;;;;;;;;;;;;;9.35;68.84;96062.42;1673297;84;20676;-63
2021/04/02 10:14:12;;;;;;;;;;;;;;;9.36;68.75;96060.20;1669586;84;20221;-64
2021/04/02 10:16:45;;;;;;;;;;;;;;;9.36;68.13;96066.19;1672138;84;20264;-61
2021/04/02 10:19:13;;;;;;;;;;;;;;;9.29;67.78;96071.48;1674040;84;20231;-63
2021/04/02 10:21:42;;;;;;;;;;;;;;;9.26;67.76;96074.73;1665688;84;20253;-63
2021/04/02 10:24:09;;;;;;;;;;;;;;;9.22;67.55;96080.61;1672248;84;20516;-64
2021/04/02 10:26:38;;;;;;;;;;;;;;;9.12;67.69;96087.41;1639549;85;20517;-63
2021/04/02 10:29:06;;;;;;;;;;;;;;;9.03;67.81;96085.03;1663537;84;21259;-60
2021/04/02 10:31:33;;;;;;;;;;;;;;;8.95;68.01;96088.63;1676604;84;20230;-62
2021/04/02 10:34:01;;;;;;;;;;;;;;;8.86;68.14;96087.52;1659860;84;20252;-63
2021/04/02 10:36:29;;;;;;;;;;;;;;;8.83;68.67;96089.02;1661619;84;20240;-62
2021/04/02 10:38:58;;;;;;;;;;;;;;;8.75;68.78;96099.09;1702532;82;20275;-61
2021/04/02 10:41:25;;;;;;;;;;;;;;;8.63;68.87;96095.17;1702857;82;21199;-63
2021/04/02 10:43:53;;;;;;;;;;;;;;;8.54;69.25;96094.52;1719525;82;20704;-63
2021/04/02 10:46:20;;;;;;;;;;;;;;;8.50;69.33;96102.59;1720923;82;20237;-64
2021/04/02 10:48:48;;;;;;;;;;;;;;;8.39;69.46;96101.55;1718149;82;20228;-64
2021/04/02 10:51:15;;;;;;;;;;;;;;;8.17;69.96;96110.42;1712069;82;20438;-62
2021/04/02 11:15:53;;;;;;;18.52;13.93;;;;;;;7.30;72.27;96141.98;1825637;76;27889;-60
2021/04/02 11:18:33;;;;;;;13.78;11.80;;;;;;;7.23;72.60;96140.70;1742229;80;21382;-56
2021/04/02 11:21:06;;;;;;;16.73;12.45;;;;;;;7.27;72.65;96138.74;1729251;82;21637;-56
2021/04/02 11:23:34;;;;;;;10.65;8.45;;;;;;;7.30;72.57;96148.88;1729132;81;21037;-58
2021/04/02 11:26:03;;;;;;;8.20;7.33;;;;;;;7.31;72.11;96141.50;1735941;81;21172;-57
2021/04/02 11:28:31;;;;;;;12.55;7.42;;;;;;;7.25;71.73;96144.47;1732747;82;28236;-57
2021/04/02 11:31:00;;;;;;;8.28;6.47;;;;;;;7.17;71.74;96145.80;1723838;81;21575;-58
2021/04/02 11:33:28;;;;;;;6.40;5.40;;;;;;;7.10;71.73;96152.26;1732451;80;21212;-57
2021/04/02 11:35:59;;;;;;;6.70;5.58;;;;;;;7.09;71.63;96161.39;1734391;81;21134;-60
2021/04/02 11:38:30;;;;;;;9.48;5.22;;;;;;;7.06;71.70;96157.27;1735183;82;21183;-59
2021/04/02 11:40:59;;;;;;;6.03;4.90;;;;;;;7.06;71.69;96170.64;1725674;81;21571;-59
2021/04/02 11:43:28;;;;;;;6.33;5.70;;;;;;;7.04;71.64;96169.44;1723108;82;21093;-59
2021/04/02 11:45:56;;;;;;;6.62;4.85;;;;;;;7.04;71.45;96177.18;1732290;81;21200;-58
2021/04/02 11:48:24;;;;;;;5.62;4.87;;;;;;;7.02;71.32;96173.03;1732343;81;21105;-59
2021/04/02 11:50:51;;;;;;;6.72;5.10;;;;;;;6.97;71.26;96184.48;1715596;82;21069;-59
2021/04/02 11:53:19;;;;;;;5.70;5.10;;;;;;;6.90;71.27;96183.66;1744230;81;21123;-59
2021/04/02 11:55:47;;;;;;;7.20;5.28;;;;;;;6.79;71.43;96188.17;1737406;81;21134;-59
2021/04/02 11:58:15;;;;;;;5.05;4.55;;;;;;;6.76;71.90;96183.20;1732821;81;21203;-60
2021/04/02 12:00:43;;;;;;;4.78;4.28;;;;;;;6.77;71.10;96186.16;1733888;82;21112;-62
2021/04/02 12:03:11;;;;;;;4.78;4.22;;;;;;;6.77;71.08;96190.03;1707931;81;21227;-60
2021/04/02 12:05:39;;;;;;;5.93;4.30;;;;;;;6.79;71.02;96195.91;1744828;82;21129;-60
2021/04/02 12:08:07;;;;;;;5.15;4.42;;;;;;;6.84;70.87;96195.16;1729297;82;21135;-61
2021/04/02 12:10:35;;;;;;;4.92;3.72;;;;;;;6.89;70.67;96206.05;1734945;80;22288;-61
2021/04/02 12:13:03;;;;;;;4.37;3.70;;;;;;;6.97;70.50;96199.10;1733572;82;21075;-60
2021/04/02 12:15:31;;;;;;;4.28;3.98;;;;;;;7.06;70.31;96201.12;1706751;81;21166;-60
2021/04/02 12:17:59;;;;;;;4.45;4.05;;;;;;;7.13;70.03;96198.52;1701835;83;21157;-59
2021/04/02 12:20:27;;;;;;;3.83;3.40;;;;;;;7.14;69.87;96204.05;1685659;84;21128;-60
2021/04/02 12:22:55;;;;;;;3.42;3.12;;;;;;;7.12;69.54;96207.63;1681226;84;21382;-60
2021/04/02 12:25:25;;;;;;;3.42;3.12;;;;;;;7.11;69.51;96214.55;1678371;84;21181;-59
2021/04/02 12:27:52;;;;;;;3.30;3.00;;;;;;;7.02;69.43;96211.72;1659364;85;21173;-59
2021/04/02 12:30:22;;;;;;;4.50;4.07;;;;;;;6.94;69.23;96220.78;1683333;83;21128;-60
2021/04/02 12:32:49;;;;;;;5.80;4.22;;;;;;;6.89;69.75;96229.70;1678732;83;21577;-59
2021/04/02 12:35:17;;;;;;;3.72;3.42;;;;;;;6.88;69.22;96220.33;1677038;84;22219;-59
2021/04/02 12:37:45;;;;;;;4.27;3.87;;;;;;;6.87;69.08;96230.27;1677354;83;21601;-61
2021/04/02 12:40:18;;;;;;;3.20;2.90;;;;;;;6.87;69.08;96240.58;1679566;85;21098;-62
2021/04/02 12:42:46;;;;;;;2.62;2.42;;;;;;;6.83;68.53;96239.95;1677445;84;21695;-59
2021/04/02 12:45:15;;;;;;;2.85;2.60;;;;;;;6.73;68.38;96246.13;1672138;84;21625;-60
2021/04/02 12:47:43;;;;;;;3.62;3.33;;;;;;;6.67;68.07;96243.91;1669738;85;21372;-60
2021/04/02 12:50:21;;;;;;;3.50;3.20;;;;;;;6.60;68.18;96244.73;1677404;83;21097;-61
2021/04/02 12:52:48;;;;;;;3.55;3.12;;;;;;;6.56;68.08;96250.16;1672314;83;21117;-61
2021/04/02 12:55:25;;;;;;;3.85;3.08;;;;;;;6.53;68.28;96253.77;1683615;83;21149;-60
2021/04/02 12:57:55;;;;;;;4.92;3.02;;;;;;;6.56;68.17;96254.88;1678394;83;21637;-61
2021/04/02 13:00:26;;;;;;;3.95;3.50;;;;;;;6.57;68.05;96251.83;1674792;83;21546;-62
2021/04/02 13:02:57;;;;;;;2.65;2.45;;;;;;;6.59;67.97;96255.14;1681003;84;21168;-61
2021/04/02 13:05:25;;;;;;;3.17;2.45;;;;;;;6.62;67.16;96260.94;1670545;84;21574;-61
2021/04/02 13:07:53;;;;;;;2.55;2.35;;;;;;;6.62;67.22;96260.12;1682066;85;21138;-60
2021/04/02 13:10:24;;;;;;;2.95;2.37;;;;;;;6.63;67.12;96261.31;1634790;86;21110;-60